KNTU/NTU METAR and TAF weather

Enter ICAO airport designator
Station Type Date Time Source
KNTU METAR 2020/03/31 06:56 UTC NOAA

KNTU 310656Z 04009KT 10SM OVC006 09/08 A2994 RMK AO2 SLP141 T00890078


Station Type Date Time Source
KNTU Decoded METAR 2020/03/31 06:56 UTC NOAA

OCEANA, NAVAL AIR STATION, VA, United States (KNTU) 36-49N 076-02W 6M
Mar 31, 2020 - 02:56 AM EDT / 2020.03.31 0656 UTC
Wind: from the NE (040 degrees) at 10 MPH (9 KT):0
Visibility: 10 mile(s):0
Sky conditions: overcast
Temperature: 48.0 F (8.9 C)
Dew Point: 46.0 F (7.8 C)
Relative Humidity: 92%
Pressure (altimeter): 29.94 in. Hg (1013 hPa)
ob: KNTU 310656Z 04009KT 10SM OVC006 09/08 A2994 RMK AO2 SLP141 T00890078
cycle: 7

Station Type Date Time Source
KNTU TAF 2020/03/30 23:52 UTC NOAA

TAF KNTU 3023/3123 24010KT 9999 BKN220 520008 QNH2981INS
FM310300 35012G22KT 9999 SCT250 500000 QNH2984INS
FM311500 02008KT 9999 BKN070 BKN100 OVC150 QNH2990INS
FM311800 05008KT 9999 BKN025 OVC070 QNH2980INS T20/3023Z T09/3120Z FN20051

Example: see airport list